Time;durP1;ratioP1;P1;durP2;ratioP2;P2;SDS_P1;SDS_P2;PMS_P1;PMS_P2;Temp;Humidity;BMP_temperature;BMP_pressure;BME280_temperature;BME280_humidity;BME280_pressure;Samples;Min_cycle;Max_cycle;Signal;HPM_P1;HPM_P2
2022/12/07 00:01:14;;;;;;;2.88;0.50;;;4.00;99.90;;;;;;6185957;23;20347;-85
2022/12/07 00:03:41;;;;;;;0.75;0.20;;;4.00;99.90;;;;;;6186264;23;20048;-85
2022/12/07 00:06:09;;;;;;;0.68;0.38;;;3.90;99.90;;;;;;6159608;23;20052;-85
2022/12/07 00:08:36;;;;;;;0.80;0.30;;;3.80;99.90;;;;;;6186039;23;20044;-85
2022/12/07 00:11:09;;;;;;;0.50;0.30;;;3.40;99.90;;;;;;6159260;23;20017;-85
2022/12/07 00:13:35;;;;;;;0.45;0.20;;;4.70;99.90;;;;;;6186279;23;20086;-85
2022/12/07 00:16:10;;;;;;;0.88;0.28;;;3.60;99.90;;;;;;6159615;23;20020;-85
2022/12/07 00:18:37;;;;;;;0.68;0.30;;;4.60;99.90;;;;;;6159150;23;20017;-85
2022/12/07 00:21:05;;;;;;;1.75;0.20;;;3.40;99.90;;;;;;6185996;23;20395;-85
2022/12/07 00:23:31;;;;;;;0.63;0.20;;;3.40;99.90;;;;;;6159505;23;20091;-85
2022/12/07 00:26:06;;;;;;;1.35;0.30;;;2.90;99.90;;;;;;6159446;23;20471;-85
2022/12/07 00:28:33;;;;;;;;;;;3.40;99.90;;;;;;6159969;23;20068;-85
2022/12/07 00:31:19;;;;;;;1.73;0.10;;;3.30;99.90;;;;;;6185693;23;19916;-85
2022/12/07 00:33:47;;;;;;;;;;;4.40;99.90;;;;;;6186227;23;20017;-85
2022/12/07 00:36:19;;;;;;;0.95;0.30;;;3.30;99.90;;;;;;6158725;23;19927;-85
2022/12/07 00:38:45;;;;;;;0.93;0.28;;;3.30;99.90;;;;;;6185831;23;20058;-86
2022/12/07 00:41:17;;;;;;;1.75;0.40;;;4.40;99.90;;;;;;6185529;23;20017;-86
2022/12/07 00:43:44;;;;;;;1.13;0.30;;;3.30;99.90;;;;;;6185970;23;20028;-85
2022/12/07 00:46:10;;;;;;;12.40;0.82;;;4.10;99.90;;;;;;6185793;23;20013;-86
2022/12/07 00:48:36;;;;;;;3.70;0.40;;;3.60;99.90;;;;;;6185701;23;20344;-85
2022/12/07 00:51:03;;;;;;;3.95;0.40;;;3.50;99.90;;;;;;6158934;23;20024;-86
2022/12/07 00:53:29;;;;;;;5.18;0.60;;;3.50;99.90;;;;;;6158738;23;20017;-85
2022/12/07 00:55:56;;;;;;;2.20;0.30;;;3.60;99.90;;;;;;6185671;23;20028;-86
2022/12/07 00:58:22;;;;;;;6.60;0.40;;;4.10;99.90;;;;;;6185903;23;20380;-86
2022/12/07 01:00:48;;;;;;;6.28;0.52;;;4.20;99.90;;;;;;6134011;23;20397;-85
2022/12/07 01:03:15;;;;;;;3.67;0.68;;;4.70;99.90;;;;;;6185561;23;20016;-86
2022/12/07 01:05:53;;;;;;;5.97;0.57;;;2.80;99.90;;;;;;6158398;23;20443;-85
2022/12/07 01:08:19;;;;;;;5.35;0.47;;;4.10;99.90;;;;;;6185624;23;20055;-86
2022/12/07 01:10:45;;;;;;;3.30;0.73;;;4.10;99.90;;;;;;6185324;23;20338;-86
2022/12/07 01:13:11;;;;;;;3.55;0.50;;;4.70;99.90;;;;;;6158912;23;20020;-86
2022/12/07 01:15:46;;;;;;;2.20;0.57;;;5.30;99.90;;;;;;6185617;23;20017;-86
2022/12/07 01:18:12;;;;;;;2.00;0.50;;;4.30;99.90;;;;;;6185555;23;20076;-85
2022/12/07 01:20:37;;;;;;;3.53;0.30;;;4.20;99.90;;;;;;6158728;23;20029;-86
2022/12/07 01:23:03;;;;;;;1.65;0.20;;;4.20;99.90;;;;;;6158940;23;20384;-86
2022/12/07 01:25:29;;;;;;;2.15;0.60;;;4.50;99.90;;;;;;6158792;23;20021;-85
2022/12/07 01:27:55;;;;;;;1.70;0.38;;;3.70;99.90;;;;;;6158956;23;20040;-85
2022/12/07 01:30:21;;;;;;;0.80;0.20;;;4.10;99.90;;;;;;6185415;23;20340;-85
2022/12/07 01:32:49;;;;;;;1.33;0.28;;;5.00;99.90;;;;;;6185177;23;20097;-86
2022/12/07 01:35:14;;;;;;;9.93;0.60;;;4.00;99.90;;;;;;6184148;23;20083;-86
2022/12/07 01:37:40;;;;;;;5.72;0.60;;;4.10;99.90;;;;;;6184900;23;20356;-86
2022/12/07 01:40:07;;;;;;;8.32;0.50;;;4.60;99.90;;;;;;6158155;23;20096;-86
2022/12/07 01:42:34;;;;;;;1.77;0.45;;;4.20;99.90;;;;;;6158420;23;20479;-86
2022/12/07 01:45:18;;;;;;;2.55;0.30;;;5.20;99.90;;;;;;6158950;23;20021;-86
2022/12/07 01:47:48;;;;;;;4.70;0.50;;;5.00;99.90;;;;;;6185310;23;20043;-85
2022/12/07 01:50:14;;;;;;;1.60;0.32;;;6.00;99.90;;;;;;6158621;23;20045;-85
2022/12/07 01:52:43;;;;;;;4.55;0.50;;;4.30;99.90;;;;;;6157937;23;20091;-86
2022/12/07 01:55:13;;;;;;;2.70;0.30;;;4.30;99.90;;;;;;6158457;23;20067;-86
2022/12/07 01:57:44;;;;;;;1.45;0.30;;;3.30;99.90;;;;;;6184894;23;20084;-85
2022/12/07 02:00:13;;;;;;;0.38;0.10;;;4.70;99.90;;;;;;6185397;23;20357;-85
2022/12/07 02:02:49;;;;;;;0.68;0.20;;;4.20;99.90;;;;;;6184705;23;20036;-86
2022/12/07 02:05:17;;;;;;;0.32;0.10;;;4.20;99.90;;;;;;6158378;23;20025;-85
2022/12/07 02:07:42;;;;;;;6.53;0.28;;;5.00;99.90;;;;;;6158433;23;20009;-85
2022/12/07 02:10:27;;;;;;;1.00;0.20;;;4.70;99.90;;;;;;6158587;23;20028;-85
2022/12/07 02:13:15;;;;;;;0.82;0.20;;;4.00;99.90;;;;;;6158113;23;20017;-85
2022/12/07 02:15:59;;;;;;;0.93;0.20;;;3.90;99.90;;;;;;6184814;23;20017;-86
2022/12/07 02:18:50;;;;;;;1.85;0.20;;;3.80;99.90;;;;;;6160022;23;20349;-86
2022/12/07 02:21:37;;;;;;;2.00;0.60;;;3.70;99.90;;;;;;6187178;23;20025;-86
2022/12/07 02:24:15;;;;;;;0.57;0.20;;;3.70;99.90;;;;;;6186709;23;20013;-85
2022/12/07 02:26:55;;;;;;;0.70;0.17;;;3.60;99.90;;;;;;6160319;23;20157;-85
2022/12/07 02:29:24;;;;;;;0.22;0.20;;;4.50;99.90;;;;;;6160319;23;20017;-85
2022/12/07 02:32:13;;;;;;;0.35;0.22;;;3.50;99.90;;;;;;6160504;23;20021;-85
2022/12/07 02:34:57;;;;;;;0.25;0.20;;;3.70;99.90;;;;;;6186393;23;20321;-85
2022/12/07 02:37:42;;;;;;;1.55;0.20;;;3.30;99.90;;;;;;6185851;23;20025;-85
2022/12/07 02:40:32;;;;;;;0.43;0.20;;;3.30;99.90;;;;;;6187082;23;20348;-85
2022/12/07 02:43:10;;;;;;;0.20;0.20;;;3.30;99.90;;;;;;6186673;23;20318;-85
2022/12/07 02:45:40;;;;;;;0.15;0.15;;;3.30;99.90;;;;;;6160831;23;20507;-85
2022/12/07 02:48:08;;;;;;;2.10;0.20;;;3.70;99.90;;;;;;6160052;23;20095;-85
2022/12/07 02:50:34;;;;;;;0.20;0.20;;;2.60;99.90;;;;;;6186140;23;20060;-85
2022/12/07 02:53:00;;;;;;;2.45;0.20;;;1.90;99.90;;;;;;6160107;23;20021;-85
2022/12/07 02:55:36;;;;;;;0.20;0.20;;;3.20;99.90;;;;;;6186813;23;20013;-85
2022/12/07 02:58:27;;;;;;;0.52;0.25;;;2.70;99.90;;;;;;6159929;23;20096;-85
2022/12/07 03:01:24;;;;;;;1.95;0.20;;;3.20;99.90;;;;;;6159357;23;20095;-84
2022/12/07 03:04:03;;;;;;;3.85;0.43;;;2.30;99.90;;;;;;6185587;23;20395;-85
2022/12/07 03:06:36;;;;;;;2.78;0.40;;;3.00;99.90;;;;;;6186393;23;20436;-85
2022/12/07 03:09:14;;;;;;;1.75;0.25;;;2.90;99.90;;;;;;6159535;23;20051;-85
2022/12/07 03:11:57;;;;;;;0.32;0.20;;;3.30;99.90;;;;;;6186497;23;20049;-85
2022/12/07 03:14:34;;;;;;;3.70;0.75;;;3.20;99.90;;;;;;6186658;23;20086;-85
2022/12/07 03:17:24;;;;;;;0.55;0.28;;;4.20;99.90;;;;;;6135280;23;20021;-85
2022/12/07 03:19:52;;;;;;;3.45;0.45;;;3.90;99.90;;;;;;6186139;23;20021;-85
2022/12/07 03:22:23;;;;;;;0.73;0.38;;;3.70;99.90;;;;;;6160103;23;20337;-85
2022/12/07 03:24:53;;;;;;;4.70;0.28;;;3.40;99.90;;;;;;6160494;23;20017;-85
2022/12/07 03:27:23;;;;;;;4.18;0.50;;;3.70;99.90;;;;;;6160124;23;20453;-85
2022/12/07 03:29:53;;;;;;;2.25;0.40;;;3.80;99.90;;;;;;6160466;23;20024;-85
2022/12/07 03:32:31;;;;;;;1.45;0.30;;;4.00;99.90;;;;;;6187797;23;20019;-85
2022/12/07 03:35:11;;;;;;;2.83;0.38;;;3.70;99.90;;;;;;6161462;23;20020;-85
2022/12/07 03:37:54;;;;;;;0.93;0.20;;;4.40;99.90;;;;;;6186464;23;20455;-85
2022/12/07 03:40:37;;;;;;;3.70;0.50;;;3.90;99.90;;;;;;6186057;23;20076;-86
2022/12/07 03:43:04;;;;;;;0.65;0.22;;;5.00;99.90;;;;;;6188283;23;20429;-86
2022/12/07 03:45:42;;;;;;;3.55;0.30;;;4.00;99.90;;;;;;6187235;23;20016;-85
2022/12/07 03:48:32;;;;;;;0.47;0.25;;;4.10;99.90;;;;;;6186587;23;20013;-85
2022/12/07 03:51:17;;;;;;;0.30;0.20;;;4.00;99.90;;;;;;6160502;23;20016;-85
2022/12/07 03:54:05;;;;;;;3.63;0.35;;;4.00;99.90;;;;;;6159681;23;20092;-84
2022/12/07 03:56:32;;;;;;;2.60;0.30;;;4.90;99.90;;;;;;6186286;23;20017;-84
2022/12/07 03:58:58;;;;;;;6.72;0.40;;;2.80;99.90;;;;;;6159726;23;20344;-85
2022/12/07 04:01:24;;;;;;;1.70;0.30;;;4.20;99.90;;;;;;6185617;23;20025;-85
2022/12/07 04:03:50;;;;;;;4.63;0.30;;;3.70;99.90;;;;;;6160154;23;20013;-85
2022/12/07 04:06:16;;;;;;;1.95;0.40;;;4.60;99.90;;;;;;6186010;23;20352;-85
2022/12/07 04:08:41;;;;;;;9.77;0.52;;;4.10;99.90;;;;;;6185986;23;20436;-84
2022/12/07 04:11:07;;;;;;;3.65;0.40;;;3.90;99.90;;;;;;6159350;23;20051;-85
2022/12/07 04:14:18;;;;;;;3.10;0.30;;;3.90;99.90;;;;;;6185614;23;20100;-85
2022/12/07 04:16:18;;;;;;;4.20;0.40;;;4.80;99.90;;;;;;6186175;23;20020;-86
2022/12/07 04:18:44;;;;;;;2.40;0.30;;;4.20;99.90;;;;;;6159330;23;20052;-85
2022/12/07 04:21:10;;;;;;;3.90;0.40;;;5.00;99.90;;;;;;6185981;23;20020;-85
2022/12/07 04:23:36;;;;;;;3.83;0.40;;;3.70;99.90;;;;;;6159511;23;20024;-85
2022/12/07 04:26:01;;;;;;;2.00;0.50;;;4.60;99.90;;;;;;6159384;23;20012;-85
2022/12/07 04:28:29;;;;;;;2.42;0.35;;;4.10;99.90;;;;;;6159328;23;20107;-84
2022/12/07 04:30:55;;;;;;;5.35;0.70;;;4.50;99.90;;;;;;6159004;23;20057;-85
2022/12/07 04:33:21;;;;;;;3.47;0.35;;;3.90;99.90;;;;;;6159260;23;20017;-85
2022/12/07 04:35:47;;;;;;;3.58;0.47;;;4.30;99.90;;;;;;6158653;23;20028;-86
2022/12/07 04:38:12;;;;;;;1.20;0.25;;;4.90;99.90;;;;;;6185872;23;20017;-86
2022/12/07 04:40:38;;;;;;;3.85;0.40;;;3.00;99.90;;;;;;6185084;23;20017;-86
2022/12/07 04:43:04;;;;;;;1.73;0.20;;;3.90;99.90;;;;;;6159016;23;20021;-86
2022/12/07 04:45:30;;;;;;;1.70;0.25;;;2.90;99.90;;;;;;6134741;23;20466;-85
2022/12/07 04:47:56;;;;;;;1.27;0.30;;;4.40;99.90;;;;;;6159104;23;20017;-86
2022/12/07 04:50:22;;;;;;;2.42;0.50;;;4.30;99.90;;;;;;6159019;23;20356;-86
2022/12/07 04:52:47;;;;;;;0.20;0.20;;;2.80;99.90;;;;;;6185736;23;20017;-86
2022/12/07 04:55:13;;;;;;;2.28;0.20;;;3.80;99.90;;;;;;6185452;23;20373;-86
2022/12/07 04:57:39;;;;;;;1.02;0.20;;;4.20;99.90;;;;;;6158917;23;20013;-86
2022/12/07 05:00:05;;;;;;;0.20;0.20;;;2.50;99.90;;;;;;6185538;23;20021;-85
2022/12/07 05:02:31;;;;;;;3.80;0.57;;;3.60;99.90;;;;;;6158703;23;20400;-85
2022/12/07 05:04:56;;;;;;;1.35;0.30;;;2.70;99.90;;;;;;6134434;23;20021;-85
2022/12/07 05:07:22;;;;;;;2.08;0.20;;;2.40;99.90;;;;;;6159216;23;20017;-85
2022/12/07 05:09:48;;;;;;;3.78;0.25;;;3.30;99.90;;;;;;6159338;23;20024;-86
2022/12/07 05:12:13;;;;;;;1.15;0.20;;;3.50;99.90;;;;;;6185578;23;20020;-86
2022/12/07 05:14:39;;;;;;;2.20;0.25;;;4.40;99.90;;;;;;6158833;23;20463;-85
2022/12/07 05:17:07;;;;;;;0.20;0.20;;;4.00;99.90;;;;;;6134685;23;20344;-85
2022/12/07 05:19:32;;;;;;;0.70;0.20;;;3.30;99.90;;;;;;6184670;23;20379;-86
2022/12/07 05:21:58;;;;;;;1.80;0.22;;;3.20;99.90;;;;;;6159157;23;20060;-86
2022/12/07 05:24:24;;;;;;;0.22;0.10;;;3.20;99.90;;;;;;6158550;23;20013;-86
2022/12/07 05:26:50;;;;;;;6.55;0.20;;;3.40;99.90;;;;;;6158574;23;20028;-86
2022/12/07 05:29:16;;;;;;;0.20;0.20;;;2.10;99.90;;;;;;6158603;23;20021;-86
2022/12/07 05:31:43;;;;;;;0.10;0.10;;;2.80;99.90;;;;;;6185262;23;20064;-86
2022/12/07 05:34:11;;;;;;;1.55;0.20;;;2.90;99.90;;;;;;6158841;23;20024;-86
2022/12/07 05:36:37;;;;;;;3.30;0.30;;;2.80;99.90;;;;;;6157948;23;20079;-86
2022/12/07 05:39:02;;;;;;;0.50;0.20;;;3.90;99.90;;;;;;6185003;23;20021;-87
2022/12/07 05:44:13;;;;;;;0.20;0.20;;;2.60;99.90;;;;;;6185280;23;20475;-84
2022/12/07 05:46:38;;;;;;;0.25;0.20;;;2.40;99.90;;;;;;6184642;23;20025;-84
2022/12/07 05:49:04;;;;;;;2.58;0.20;;;3.20;99.90;;;;;;6185411;23;20009;-86
2022/12/07 05:51:30;;;;;;;3.83;0.30;;;3.60;99.90;;;;;;6184744;23;20054;-86
2022/12/07 05:53:55;;;;;;;3.72;0.20;;;2.40;99.90;;;;;;6158641;23;20023;-85
2022/12/07 05:56:23;;;;;;;1.25;0.20;;;1.70;99.90;;;;;;6158414;23;20021;-85
2022/12/07 06:01:33;;;;;;;0.28;0.20;;;2.90;99.90;;;;;;6158703;23;20344;-85
2022/12/07 06:03:59;;;;;;;0.45;0.20;;;3.50;99.90;;;;;;6159117;23;20025;-86
2022/12/07 06:06:24;;;;;;;0.95;0.20;;;2.20;99.90;;;;;;6158586;23;20021;-86
2022/12/07 06:08:50;;;;;;;8.73;0.43;;;2.20;99.90;;;;;;6184648;23;20013;-86
2022/12/07 06:14:00;;;;;;;4.85;0.50;;;2.30;99.90;;;;;;6158264;23;20389;-87
2022/12/07 06:16:26;;;;;;;1.67;0.40;;;2.60;99.90;;;;;;6184872;23;20017;-86
2022/12/07 06:18:51;;;;;;;3.75;0.57;;;3.40;99.90;;;;;;6158397;23;20052;-86
2022/12/07 06:21:17;;;;;;;6.18;0.70;;;2.80;99.90;;;;;;6158406;23;20104;-85
2022/12/07 06:23:43;;;;;;;5.10;0.50;;;2.90;99.90;;;;;;6158146;23;20395;-85
2022/12/07 06:26:08;;;;;;;4.88;0.63;;;3.70;99.90;;;;;;6185151;23;20032;-86
2022/12/07 06:28:34;;;;;;;4.38;0.35;;;3.50;99.90;;;;;;6185045;23;20016;-86
2022/12/07 06:31:01;;;;;;;2.33;0.30;;;3.30;99.90;;;;;;6184714;23;20344;-86
2022/12/07 06:33:28;;;;;;;10.68;0.50;;;3.20;99.90;;;;;;6158682;23;20013;-86
2022/12/07 06:35:54;;;;;;;6.07;0.75;;;4.70;99.90;;;;;;6158367;23;20031;-86
2022/12/07 06:38:20;;;;;;;4.43;0.57;;;3.40;99.90;;;;;;6184970;23;20053;-85
2022/12/07 06:40:45;;;;;;;3.47;0.43;;;3.60;99.90;;;;;;6184799;23;20451;-85
2022/12/07 06:43:11;;;;;;;0.85;0.30;;;3.80;99.90;;;;;;6185136;23;20153;-86
2022/12/07 06:45:37;;;;;;;0.75;0.20;;;3.40;99.90;;;;;;6184988;23;20021;-85
2022/12/07 06:48:02;;;;;;;0.75;0.22;;;3.30;99.90;;;;;;6184939;23;20083;-86
2022/12/07 06:50:28;;;;;;;1.73;0.40;;;2.70;99.90;;;;;;6185038;23;20345;-86
2022/12/07 06:52:54;;;;;;;1.20;0.30;;;4.30;99.90;;;;;;6158377;23;20343;-86
2022/12/07 06:55:20;;;;;;;3.05;0.50;;;3.30;99.90;;;;;;6158793;23;20044;-86
2022/12/07 06:57:45;;;;;;;0.82;0.45;;;3.70;99.90;;;;;;6186067;23;20021;-88
2022/12/07 07:00:12;;;;;;;2.10;0.60;;;2.90;99.90;;;;;;6135011;23;20031;-87
2022/12/07 07:02:37;;;;;;;2.40;0.50;;;3.20;99.90;;;;;;6161848;23;20100;-88
2022/12/07 07:05:03;;;;;;;7.50;0.70;;;3.30;99.90;;;;;;6163954;23;20025;-89
2022/12/07 07:07:29;;;;;;;6.30;0.68;;;3.60;99.90;;;;;;6164789;23;20032;-87
2022/12/07 07:09:55;;;;;;;8.50;0.70;;;3.70;99.90;;;;;;6190312;23;20020;-85
2022/12/07 07:12:21;;;;;;;2.92;0.65;;;3.20;99.90;;;;;;6189809;23;20371;-87
2022/12/07 07:14:46;;;;;;;1.83;0.43;;;3.50;99.90;;;;;;6188575;23;20091;-88
2022/12/07 07:17:12;;;;;;;2.88;0.40;;;3.30;99.90;;;;;;6165740;23;20052;-89
2022/12/07 07:19:38;;;;;;;6.57;0.70;;;3.70;99.90;;;;;;6194135;23;20013;-88
2022/12/07 07:22:04;;;;;;;4.43;0.57;;;4.50;99.90;;;;;;6162517;23;20024;-86
2022/12/07 07:24:30;;;;;;;4.20;0.85;;;4.60;99.90;;;;;;6193067;23;20020;-89
2022/12/07 07:26:56;;;;;;;2.22;0.30;;;3.40;99.90;;;;;;6172126;23;20013;-87
2022/12/07 07:29:21;;;;;;;4.32;0.50;;;4.20;99.90;;;;;;6193054;23;20076;-87
2022/12/07 07:31:47;;;;;;;5.13;0.50;;;4.20;99.90;;;;;;6160791;23;20020;-88
2022/12/07 07:34:16;;;;;;;3.65;0.60;;;3.20;99.90;;;;;;6186335;23;20028;-88
2022/12/07 07:36:42;;;;;;;3.28;0.50;;;3.40;99.90;;;;;;6154866;23;20161;-90
2022/12/07 07:39:14;;;;;;;8.50;0.90;;;4.30;99.90;;;;;;6154581;23;20021;-89
2022/12/07 07:41:40;;;;;;;6.70;0.45;;;3.60;99.90;;;;;;6155439;23;20144;-90
2022/12/07 07:44:21;;;;;;;7.68;0.57;;;4.00;99.90;;;;;;6154965;23;20024;-91
2022/12/07 07:46:50;;;;;;;;;;;4.50;99.90;;;;;;6155642;23;20097;-88
2022/12/07 07:49:23;;;;;;;5.18;0.43;;;3.60;99.90;;;;;;6156587;23;19955;-89
2022/12/07 07:51:54;;;;;;;5.65;0.70;;;3.60;99.90;;;;;;6155438;23;20370;-90
2022/12/07 07:54:22;;;;;;;3.05;0.47;;;3.70;99.90;;;;;;6156463;23;20088;-89
2022/12/07 07:56:49;;;;;;;5.95;0.52;;;4.40;99.90;;;;;;6154347;23;20081;-88
2022/12/07 07:59:18;;;;;;;1.70;0.30;;;3.60;99.90;;;;;;6156159;23;20026;-88
2022/12/07 08:01:44;;;;;;;2.80;0.32;;;3.50;99.90;;;;;;6130444;23;20018;-88
2022/12/07 08:04:19;;;;;;;1.17;0.20;;;2.00;99.90;;;;;;6154528;23;20402;-88
2022/12/07 08:06:44;;;;;;;0.88;0.30;;;4.30;99.90;;;;;;6155137;23;20028;-90
2022/12/07 08:09:13;;;;;;;2.35;0.68;;;3.20;99.90;;;;;;6129824;23;20013;-84
2022/12/07 08:11:39;;;;;;;1.58;0.20;;;3.80;99.90;;;;;;6154573;23;20028;-89
2022/12/07 08:14:04;;;;;;;0.47;0.20;;;3.20;99.90;;;;;;6154175;23;20437;-87
2022/12/07 08:16:30;;;;;;;0.30;0.20;;;2.40;99.90;;;;;;6154304;23;20026;-89
2022/12/07 08:18:56;;;;;;;1.55;0.30;;;3.70;99.90;;;;;;6156160;23;20009;-88
2022/12/07 08:21:22;;;;;;;1.35;0.20;;;3.30;99.90;;;;;;6156156;23;20112;-86
2022/12/07 08:23:47;;;;;;;1.35;0.40;;;1.90;99.90;;;;;;6156348;23;20520;-87
2022/12/07 08:26:15;;;;;;;1.33;0.30;;;4.00;99.90;;;;;;6129814;23;20017;-85
2022/12/07 08:28:41;;;;;;;3.30;0.70;;;3.60;99.90;;;;;;6155073;23;20025;-86
2022/12/07 08:31:13;;;;;;;4.05;0.63;;;3.60;99.90;;;;;;6154445;23;20020;-86
2022/12/07 08:33:39;;;;;;;4.47;0.68;;;3.50;99.90;;;;;;6155060;23;20432;-87
2022/12/07 08:36:08;;;;;;;6.93;0.65;;;3.40;99.90;;;;;;6156568;23;20025;-87
2022/12/07 08:38:35;;;;;;;5.15;0.98;;;3.60;99.90;;;;;;6159526;23;20028;-86
2022/12/07 08:41:01;;;;;;;3.10;0.45;;;4.20;99.90;;;;;;6160999;23;20075;-87
2022/12/07 08:43:27;;;;;;;1.42;0.50;;;3.60;99.90;;;;;;6186185;23;20448;-85
2022/12/07 08:46:15;;;;;;;2.83;0.60;;;4.50;99.90;;;;;;6159399;23;20063;-87
2022/12/07 08:48:48;;;;;;;5.97;0.50;;;3.70;99.90;;;;;;6185847;23;20017;-87
2022/12/07 08:51:14;;;;;;;5.82;0.45;;;4.40;99.90;;;;;;6186202;23;20032;-87
2022/12/07 08:53:42;;;;;;;2.45;0.40;;;2.80;99.90;;;;;;6186030;23;20013;-87
2022/12/07 08:56:08;;;;;;;4.50;0.35;;;4.30;99.90;;;;;;6186090;23;20103;-87
2022/12/07 08:58:36;;;;;;;5.32;0.47;;;4.00;99.90;;;;;;6159415;23;20064;-87
2022/12/07 09:01:02;;;;;;;4.57;0.50;;;4.20;99.90;;;;;;6185966;23;20017;-88
2022/12/07 09:03:27;;;;;;;7.97;0.90;;;4.40;99.90;;;;;;6159412;23;20024;-88
2022/12/07 09:05:54;;;;;;;3.05;0.82;;;4.20;99.90;;;;;;6185904;23;20016;-88
2022/12/07 09:08:22;;;;;;;2.28;0.50;;;4.20;99.90;;;;;;6159857;23;20021;-87
2022/12/07 09:10:48;;;;;;;0.57;0.30;;;4.20;99.90;;;;;;6159354;23;20012;-87
2022/12/07 09:13:13;;;;;;;8.10;0.63;;;4.70;99.90;;;;;;6185971;23;20025;-88
2022/12/07 09:15:39;;;;;;;8.75;0.77;;;4.30;99.90;;;;;;6159388;23;20080;-87
2022/12/07 09:18:05;;;;;;;5.47;0.60;;;4.30;99.90;;;;;;6135099;23;20017;-87
2022/12/07 09:20:30;;;;;;;4.60;1.02;;;4.80;99.90;;;;;;6159448;23;20020;-86
2022/12/07 09:22:56;;;;;;;4.53;1.20;;;4.50;99.90;;;;;;6159617;23;20328;-87
2022/12/07 09:25:22;;;;;;;12.20;1.85;;;4.30;99.90;;;;;;6134932;23;20039;-87
2022/12/07 09:27:48;;;;;;;4.97;1.05;;;5.80;99.90;;;;;;6159209;23;20017;-88
2022/12/07 09:30:13;;;;;;;6.18;0.70;;;5.30;99.90;;;;;;6185482;23;20456;-87
2022/12/07 09:32:39;;;;;;;2.92;0.50;;;4.80;99.90;;;;;;6185495;23;20017;-87
2022/12/07 09:35:05;;;;;;;3.25;0.52;;;4.80;99.90;;;;;;6159014;23;20021;-87
2022/12/07 09:37:34;;;;;;;1.35;0.35;;;4.80;99.90;;;;;;6159347;23;20021;-87
2022/12/07 09:40:01;;;;;;;0.93;0.32;;;4.00;99.90;;;;;;6185571;23;20348;-87
2022/12/07 09:42:36;;;;;;;5.38;0.30;;;5.00;99.90;;;;;;6159519;23;20024;-87
2022/12/07 09:45:06;;;;;;;3.80;0.40;;;5.70;99.90;;;;;;6159170;23;20021;-87
2022/12/07 09:47:33;;;;;;;4.18;0.60;;;5.10;99.90;;;;;;6185672;23;20009;-88
2022/12/07 09:50:13;;;;;;;1.90;0.45;;;6.00;99.90;;;;;;6185791;23;20021;-88
2022/12/07 09:52:40;;;;;;;12.18;0.75;;;5.30;99.90;;;;;;6159474;23;20459;-87
2022/12/07 09:55:12;;;;;;;3.92;0.50;;;5.60;99.90;;;;;;6159471;23;20028;-88
2022/12/07 09:57:38;;;;;;;4.00;0.30;;;6.10;99.90;;;;;;6158830;23;20039;-87
2022/12/07 10:00:10;;;;;;;3.25;0.38;;;6.10;99.90;;;;;;6134404;23;20099;-87
2022/12/07 10:02:46;;;;;;;1.33;0.40;;;5.30;99.90;;;;;;6158977;23;20048;-88
2022/12/07 10:05:20;;;;;;;6.95;0.70;;;5.40;99.90;;;;;;6185568;23;20072;-87
2022/12/07 10:07:46;;;;;;;3.03;0.90;;;5.70;99.90;;;;;;6159309;23;20023;-87
2022/12/07 10:10:18;;;;;;;4.47;0.50;;;6.30;99.90;;;;;;6158959;23;20091;-87
2022/12/07 10:12:57;;;;;;;7.20;0.60;;;5.60;99.90;;;;;;6158764;23;20405;-87
2022/12/07 10:15:23;;;;;;;7.60;0.50;;;6.60;99.90;;;;;;6159297;23;20024;-88
2022/12/07 10:17:52;;;;;;;2.63;0.40;;;6.40;99.90;;;;;;6159484;23;20049;-87
2022/12/07 10:20:24;;;;;;;6.97;0.40;;;5.80;99.90;;;;;;6185200;23;20322;-88
2022/12/07 10:22:59;;;;;;;2.72;0.50;;;6.30;99.90;;;;;;6185635;23;20013;-87
2022/12/07 10:25:32;;;;;;;2.28;0.25;;;5.80;99.90;;;;;;6185200;23;20510;-88
2022/12/07 10:28:01;;;;;;;6.60;0.32;;;5.80;99.90;;;;;;6185124;23;20399;-87
2022/12/07 10:30:27;;;;;;;2.20;0.30;;;5.90;99.90;;;;;;6159121;23;20013;-87
2022/12/07 10:32:53;;;;;;;5.72;0.55;;;6.30;99.90;;;;;;6158575;23;20103;-86
2022/12/07 10:35:23;;;;;;;4.53;0.45;;;5.90;99.90;;;;;;6158562;23;20483;-86
2022/12/07 10:37:51;;;;;;;7.93;0.73;;;6.00;99.90;;;;;;6185586;23;20017;-85
2022/12/07 10:40:25;;;;;;;7.38;0.60;;;6.90;99.90;;;;;;6187009;23;20037;-86
2022/12/07 10:43:13;;;;;;;5.25;0.57;;;6.00;99.90;;;;;;6160134;23;20068;-86
2022/12/07 10:46:01;;;;;;;3.85;0.30;;;6.00;99.90;;;;;;6186813;23;20028;-89
2022/12/07 10:48:47;;;;;;;1.85;0.40;;;5.80;99.90;;;;;;6186873;23;20017;-87
2022/12/07 10:51:37;;;;;;;2.75;0.50;;;6.00;99.90;;;;;;6187466;23;20013;-87
2022/12/07 10:54:10;;;;;;;2.80;0.47;;;6.10;99.90;;;;;;6185950;23;20100;-86
2022/12/07 10:56:44;;;;;;;1.65;0.50;;;6.20;99.90;;;;;;6186842;23;20017;-85
2022/12/07 10:59:39;;;;;;;1.95;0.45;;;6.20;99.90;;;;;;6187110;23;20021;-85
2022/12/07 11:02:35;;;;;;;2.63;0.30;;;6.70;99.90;;;;;;6164203;23;20017;-85
2022/12/07 11:05:10;;;;;;;3.78;0.40;;;6.10;99.90;;;;;;6160984;23;20356;-88
2022/12/07 11:07:48;;;;;;;4.03;0.30;;;6.00;99.90;;;;;;6187738;23;20024;-85
2022/12/07 11:10:25;;;;;;;0.32;0.30;;;5.90;99.90;;;;;;6188908;23;20025;-87
2022/12/07 11:12:59;;;;;;;1.67;0.30;;;5.90;99.90;;;;;;6188846;23;20092;-85
2022/12/07 11:15:31;;;;;;;3.15;0.20;;;5.90;99.90;;;;;;6191937;23;20017;-84
2022/12/07 11:18:29;;;;;;;2.28;0.30;;;6.80;99.90;;;;;;6186933;23;20013;-84
2022/12/07 11:20:58;;;;;;;1.45;0.30;;;5.70;99.90;;;;;;6015063;23;20026;-85
2022/12/07 11:23:57;;;;;;;0.85;0.30;;;6.40;99.90;;;;;;6038200;23;20070;-85
2022/12/07 11:26:34;;;;;;;1.10;0.30;;;5.70;99.90;;;;;;6038046;23;20474;-86
2022/12/07 11:29:28;;;;;;;1.17;0.28;;;5.70;99.90;;;;;;6037625;23;20023;-85
2022/12/07 11:32:31;;;;;;;2.40;0.50;;;5.70;99.90;;;;;;6037716;23;20115;-87
2022/12/07 11:35:15;;;;;;;0.63;0.20;;;5.70;99.90;;;;;;6037597;23;20023;-88
2022/12/07 11:37:41;;;;;;;0.98;0.20;;;5.80;99.90;;;;;;6037620;23;20088;-91
2022/12/07 11:40:24;;;;;;;2.08;0.30;;;5.90;99.90;;;;;;6013714;23;20023;-87
2022/12/07 11:43:01;;;;;;;1.08;0.30;;;6.00;99.90;;;;;;6013807;23;20055;-87
2022/12/07 11:45:31;;;;;;;3.28;0.30;;;6.10;99.90;;;;;;6014342;23;20057;-88
2022/12/07 11:48:28;;;;;;;1.20;0.30;;;6.90;99.90;;;;;;6013840;23;20119;-88
2022/12/07 11:50:58;;;;;;;0.55;0.20;;;6.00;99.90;;;;;;6014560;23;20033;-91
2022/12/07 11:53:37;;;;;;;2.55;0.30;;;6.20;99.90;;;;;;6038512;23;20059;-87
2022/12/07 11:56:15;;;;;;;3.20;0.30;;;6.10;99.90;;;;;;6082465;23;20084;-87
2022/12/07 11:58:49;;;;;;;3.88;0.60;;;6.60;99.90;;;;;;6160124;23;20440;-89
2022/12/07 12:01:23;;;;;;;2.33;0.30;;;6.10;99.90;;;;;;6160525;23;20028;-87
2022/12/07 12:04:06;;;;;;;4.50;0.40;;;6.10;99.90;;;;;;6186312;23;20024;-90
2022/12/07 12:06:34;;;;;;;2.50;0.20;;;6.10;99.90;;;;;;6159525;23;20025;-87
2022/12/07 12:09:21;;;;;;;5.13;0.50;;;6.10;99.90;;;;;;6159873;23;20021;-87
2022/12/07 12:12:19;;;;;;;2.22;0.63;;;6.40;99.90;;;;;;6186466;23;20023;-86
2022/12/07 12:15:22;;;;;;;2.83;0.40;;;6.10;99.90;;;;;;6186135;23;20020;-87
2022/12/07 12:17:51;;;;;;;1.10;0.70;;;6.00;99.90;;;;;;6159697;23;20020;-87
2022/12/07 12:20:28;;;;;;;3.92;0.60;;;6.20;99.90;;;;;;6158961;23;20025;-87
2022/12/07 12:23:05;;;;;;;2.15;0.50;;;6.10;99.90;;;;;;6159459;23;20352;-86
2022/12/07 12:25:39;;;;;;;3.10;0.40;;;5.90;99.90;;;;;;6186108;23;20013;-86
2022/12/07 12:28:05;;;;;;;1.02;0.30;;;6.10;99.90;;;;;;6186035;23;20017;-86
2022/12/07 12:30:30;;;;;;;0.55;0.40;;;6.10;99.90;;;;;;6159635;23;20013;-88
2022/12/07 12:33:12;;;;;;;4.03;0.57;;;6.80;99.90;;;;;;6185937;23;20028;-87
2022/12/07 12:35:38;;;;;;;6.75;0.47;;;6.10;99.90;;;;;;6159433;23;20021;-90
2022/12/07 12:38:25;;;;;;;0.50;0.32;;;6.20;99.90;;;;;;6185907;23;20023;-89
2022/12/07 12:40:51;;;;;;;5.15;1.27;;;6.20;99.90;;;;;;6159359;23;20452;-88
2022/12/07 12:43:48;;;;;;;4.65;0.40;;;6.30;99.90;;;;;;6186075;23;20013;-89
2022/12/07 12:46:30;;;;;;;1.90;0.40;;;6.20;99.90;;;;;;6185816;23;20027;-88
2022/12/07 12:49:32;;;;;;;2.28;0.40;;;6.60;99.90;;;;;;6159411;23;20460;-90
2022/12/07 12:52:03;;;;;;;1.50;0.32;;;6.10;99.90;;;;;;6186083;23;20075;-88
2022/12/07 12:54:32;;;;;;;1.10;0.47;;;6.10;99.90;;;;;;6159497;23;20507;-86
2022/12/07 12:57:26;;;;;;;6.28;0.47;;;6.30;99.90;;;;;;6159076;23;20017;-89
2022/12/07 12:59:52;;;;;;;4.80;0.50;;;5.90;99.90;;;;;;6158825;23;20028;-91
2022/12/07 13:02:28;;;;;;;2.05;0.40;;;6.00;99.90;;;;;;6185601;23;20092;-88
2022/12/07 13:05:09;;;;;;;1.90;0.25;;;5.90;99.90;;;;;;6185726;23;20015;-86
2022/12/07 13:07:47;;;;;;;0.52;0.20;;;6.00;99.90;;;;;;6185581;23;20017;-90
2022/12/07 13:10:28;;;;;;;1.58;0.15;;;5.90;99.90;;;;;;6159082;23;20071;-88
2022/12/07 13:13:05;;;;;;;1.45;0.45;;;6.10;99.90;;;;;;6185715;23;20023;-87
2022/12/07 13:15:38;;;;;;;2.30;0.40;;;5.90;99.90;;;;;;6158886;23;20470;-87
2022/12/07 13:18:27;;;;;;;5.28;0.70;;;6.10;99.90;;;;;;6158917;23;20017;-89
2022/12/07 13:21:08;;;;;;;1.38;0.20;;;5.90;99.90;;;;;;6185206;23;20021;-87
2022/12/07 13:23:45;;;;;;;1.92;0.20;;;5.80;99.90;;;;;;6185396;23;20050;-86
2022/12/07 13:26:18;;;;;;;2.30;0.30;;;5.80;99.90;;;;;;6185357;23;20017;-87
2022/12/07 13:28:51;;;;;;;1.58;0.20;;;5.80;99.90;;;;;;6185135;23;20096;-87